Alameda, OR

2:49 PM PDT on August 30, 2014 (GMT -0700)
Portland-Troutdale | Change Station
CLOSE
Current Station
Airport
Location: Portland Troutdale,
Elevation: 36 ft
Nearby Weather Stations

Elev 36 ft 45.55 °N, 122.41 °W | Updated 19 minutes ago

Light Rain
Light Rain Mist
66 °F
Feels Like 66 °F
N
8
Wind Variable Wind from SW

Today
High -- | Low -- °F
--% Chance of Precip.
Yesterday
High -- | Low -- °F
Precip. -- in
6:29 AM 7:51 PM
Waxing Crescent, 25% visible
Pressure 29.94 in
Visibility 4.0 miles
Clouds Few 1700 ft
Mostly Cloudy 3000 ft
Overcast 3700 ft
Dew Point 62 °F
Humidity 87%
Rainfall 0.03 in
Snow Depth Not available.
UV 2 out of 12
Pollen 3.40 out of 12
Ozone Good
PM2.5 Good
Flu Activity Not available.
SPECI KTTD 302130Z 23007KT 4SM -RA BR FEW017 BKN030 OVC037 19/17 A2994 RMK AO2 RAB2055 P0002 T01890167

More Conditions Fewer Conditions

Pressure 29.94 in
Visibility 4.0 miles
Clouds Few 1700 ft
Mostly Cloudy 3000 ft
Overcast 3700 ft
Dew Point 62 °F
Humidity 87%
Rainfall 0.03 in
Snow Depth Not available.
UV 2 out of 12
Pollen 3.40 out of 12
Ozone Good
PM2.5 Good
Flu Activity Not available.
SPECI KTTD 302130Z 23007KT 4SM -RA BR FEW017 BKN030 OVC037 19/17 A2994 RMK AO2 RAB2055 P0002 T01890167

More Conditions Fewer Conditions

10-Day Weather Forecast

Almanac

Astronomy

Aug. 30, 2014 Rise Set
Actual Time 6:29 AM PDT 7:51 PM PDT
Civil Twilight 5:58 AM PDT 8:22 PM PDT
Nautical Twilight 5:21 AM PDT 8:59 PM PDT
Astronomical Twilight 4:41 AM PDT 9:39 PM PDT
Moon 11:38 AM PDT 10:12 PM PDT
Length of Visible Light 14h 23m
Length of Day
13h 22m
Tomorrow will be 3m 5s shorter.
Waxing Crescent, 25% of the Moon is Illuminated
Today
Waxing Crescent
Sep 2
First Quarter
Sep 8
Full
Sep 15
Last Quarter
Sep 24
New

Today's Extremes

State Highs State Lows

Community

WunderPhotos

Upload Photos

1,748,647 photos uploaded!

WunderBlogs® & News

Nearby

Air Quality

  Air Quality AQ Index Pollutant
Yesterday Good
OZONE
Yesterday Good
PM2.5
Current Good
OZONE
Current Good
PM2.5
Saturday Good
PM2.5
Sunday Good
PM2.5

Snow Depth

Station Depth Elevation
North Fork 1 in 3120 ft
Seine Creek 0 in 2000 ft
Blazed Alder 0 in 3650 ft
Greenpoint 1 in 3200 ft
Red Hill 0 in 4400 ft

Earthquake Activity

City Distance Mag. Time & Date
No recent earthquake activity has been reported nearby.
Minimum magnitude displayed is 2.5.

Coastal Water Temperatures

Place Temperature
No Stations Reporting

Nearby Weather Stations